createdAt,value
2022-10-15T00:01:07.772Z,157.50
2022-10-15T00:03:37.005Z,158.95
2022-10-15T00:06:05.980Z,153.85
2022-10-15T00:08:33.292Z,156.93
2022-10-15T00:11:21.938Z,203.77
2022-10-15T00:13:50.457Z,175.68
2022-10-15T00:16:20.117Z,183.88
2022-10-15T00:18:47.374Z,183.05
2022-10-15T00:21:16.100Z,170.38
2022-10-15T00:23:46.769Z,201.23
2022-10-15T00:26:20.099Z,194.63
2022-10-15T00:28:50.884Z,191.85
2022-10-15T00:31:24.632Z,168.98
2022-10-15T00:33:53.152Z,182.07
2022-10-15T00:36:22.997Z,181.63
2022-10-15T00:38:50.970Z,175.60
2022-10-15T00:41:31.148Z,182.85
2022-10-15T00:44:00.637Z,171.23
2022-10-15T00:46:38.146Z,180.70
2022-10-15T00:49:26.766Z,182.27
2022-10-15T00:52:14.299Z,161.60
2022-10-15T00:54:47.989Z,172.98
2022-10-15T00:57:15.797Z,180.90
2022-10-15T00:59:57.565Z,160.30
2022-10-15T01:02:25.293Z,152.35
2022-10-15T01:04:56.117Z,152.98
2022-10-15T01:07:23.235Z,153.57
2022-10-15T01:09:50.907Z,144.50
2022-10-15T01:12:28.302Z,139.45
2022-10-15T01:15:16.878Z,142.30
2022-10-15T01:17:50.840Z,150.38
2022-10-15T01:20:41.242Z,132.10
2022-10-15T01:23:26.824Z,159.00
2022-10-15T01:26:40.601Z,150.70
2022-10-15T01:29:32.379Z,163.52
2022-10-15T01:32:08.042Z,173.80
2022-10-15T01:34:44.091Z,189.18
2022-10-15T01:37:42.152Z,186.50
2022-10-15T01:40:21.992Z,183.98
2022-10-15T01:43:02.989Z,192.25
2022-10-15T01:45:54.051Z,195.57
2022-10-15T01:48:44.331Z,192.73
2022-10-15T01:51:15.475Z,178.32
2022-10-15T01:53:46.130Z,182.15
2022-10-15T01:56:20.802Z,189.25
2022-10-15T01:58:51.100Z,196.05
2022-10-15T02:01:21.675Z,181.68
2022-10-15T02:03:51.207Z,191.98
2022-10-15T02:06:31.158Z,175.82
2022-10-15T02:09:23.633Z,195.68
2022-10-15T02:12:16.694Z,190.75
2022-10-15T02:14:53.234Z,189.35
2022-10-15T02:17:32.131Z,185.45
2022-10-15T02:20:12.512Z,179.35
2022-10-15T02:22:53.244Z,183.68
2022-10-15T02:25:24.021Z,167.98
2022-10-15T02:27:54.941Z,169.88
2022-10-15T02:30:25.910Z,162.68
2022-10-15T02:33:00.564Z,159.50
2022-10-15T02:35:28.596Z,162.52
2022-10-15T02:37:59.606Z,162.13
2022-10-15T02:40:29.059Z,167.75
2022-10-15T02:43:00.275Z,158.75
2022-10-15T02:45:29.787Z,165.82
2022-10-15T02:47:56.834Z,163.48
2022-10-15T02:50:26.266Z,154.55
2022-10-15T02:52:53.343Z,171.80
2022-10-15T02:55:22.572Z,171.15
2022-10-15T02:57:52.302Z,174.77
2022-10-15T03:00:19.290Z,174.55
2022-10-15T03:02:49.106Z,175.20
2022-10-15T03:05:19.038Z,172.18
2022-10-15T03:07:46.760Z,165.35
2022-10-15T03:10:15.087Z,165.05
2022-10-15T03:12:44.659Z,170.00
2022-10-15T03:15:12.968Z,156.85
2022-10-15T03:17:41.100Z,147.30
2022-10-15T03:20:08.487Z,152.50
2022-10-15T03:22:39.866Z,150.15
2022-10-15T03:25:07.102Z,149.85
2022-10-15T03:27:36.636Z,151.30
2022-10-15T03:30:11.087Z,152.95
2022-10-15T03:32:39.484Z,154.57
2022-10-15T03:35:06.976Z,154.88
2022-10-15T03:37:34.070Z,148.15
2022-10-15T03:40:01.283Z,141.50
2022-10-15T03:42:28.156Z,142.20
2022-10-15T03:44:55.300Z,148.40
2022-10-15T03:47:24.813Z,147.40
2022-10-15T03:49:51.666Z,145.45
2022-10-15T03:52:19.981Z,137.90
2022-10-15T03:54:48.414Z,134.95
2022-10-15T03:57:18.492Z,142.52
2022-10-15T03:59:50.654Z,136.20
2022-10-15T04:02:18.946Z,147.40
2022-10-15T04:04:48.504Z,142.02
2022-10-15T04:07:15.620Z,142.13
2022-10-15T04:09:42.553Z,135.85
2022-10-15T04:12:22.632Z,129.70
2022-10-15T04:14:50.155Z,131.95
2022-10-15T04:17:17.903Z,135.30
2022-10-15T04:19:45.993Z,125.68
2022-10-15T04:22:14.909Z,135.70
2022-10-15T04:24:50.208Z,124.53
2022-10-15T04:27:26.470Z,127.85
2022-10-15T04:30:01.521Z,137.40
2022-10-15T04:32:28.863Z,119.45
2022-10-15T04:34:56.361Z,120.57
2022-10-15T04:37:36.693Z,121.28
2022-10-15T04:40:05.103Z,115.35
2022-10-15T04:42:32.442Z,112.78
2022-10-15T04:44:59.598Z,117.68
2022-10-15T04:47:26.719Z,125.03
2022-10-15T04:50:08.404Z,122.25
2022-10-15T04:53:07.470Z,119.93
2022-10-15T04:55:38.346Z,119.82
2022-10-15T04:58:05.963Z,116.50
2022-10-15T05:00:33.172Z,111.47
2022-10-15T05:03:18.778Z,111.63
2022-10-15T05:05:54.410Z,114.28
2022-10-15T05:08:21.864Z,118.38
2022-10-15T05:11:23.623Z,124.35
2022-10-15T05:13:58.131Z,113.85
2022-10-15T05:16:27.947Z,116.05
2022-10-15T05:19:00.490Z,118.10
2022-10-15T05:21:30.043Z,123.05
2022-10-15T05:24:01.098Z,110.70
2022-10-15T05:26:46.359Z,120.35
2022-10-15T05:29:15.284Z,109.93
2022-10-15T05:31:45.055Z,110.85
2022-10-15T05:34:17.881Z,117.05
2022-10-15T05:36:51.035Z,117.80
2022-10-15T05:39:20.520Z,115.18
2022-10-15T05:41:50.764Z,112.53
2022-10-15T05:44:20.382Z,111.68
2022-10-15T05:46:47.610Z,117.90
2022-10-15T05:49:21.692Z,106.97
2022-10-15T05:51:59.160Z,103.03
2022-10-15T05:54:43.519Z,112.13
2022-10-15T05:57:10.691Z,113.45
2022-10-15T05:59:37.850Z,111.22
2022-10-15T06:02:07.087Z,108.15
2022-10-15T06:04:35.820Z,112.97
2022-10-15T06:07:05.341Z,112.55
2022-10-15T06:09:32.684Z,114.68
2022-10-15T06:12:02.021Z,111.40
2022-10-15T06:14:30.262Z,113.93
2022-10-15T06:16:57.223Z,116.78
2022-10-15T06:19:24.335Z,115.97
2022-10-15T06:21:51.223Z,112.40
2022-10-15T06:24:20.372Z,109.88
2022-10-15T06:26:47.438Z,120.28
2022-10-15T06:29:14.463Z,110.80
2022-10-15T06:31:41.409Z,116.53
2022-10-15T06:34:08.535Z,112.05
2022-10-15T06:36:35.519Z,117.45
2022-10-15T06:39:04.744Z,103.30
2022-10-15T06:41:32.194Z,108.93
2022-10-15T06:43:59.112Z,102.60
2022-10-15T06:46:26.166Z,102.25
2022-10-15T06:48:54.536Z,99.70
2022-10-15T06:51:21.450Z,102.00
2022-10-15T06:53:50.605Z,97.55
2022-10-15T06:56:17.871Z,96.30
2022-10-15T06:58:45.102Z,93.70
2022-10-15T07:01:12.066Z,91.50
2022-10-15T07:03:39.312Z,90.13
2022-10-15T07:06:08.756Z,87.65
2022-10-15T07:08:38.741Z,87.15
2022-10-15T07:11:10.355Z,81.70
2022-10-15T07:13:38.580Z,82.53
2022-10-15T07:16:10.480Z,89.78
2022-10-15T07:18:38.254Z,81.88
2022-10-15T07:21:07.432Z,82.50
2022-10-15T07:23:34.724Z,77.72
2022-10-15T07:26:02.459Z,80.28
2022-10-15T07:28:29.714Z,79.78
2022-10-15T07:31:04.941Z,81.35
2022-10-15T07:33:36.034Z,81.85
2022-10-15T07:36:08.219Z,70.63
2022-10-15T07:38:35.980Z,84.28
2022-10-15T07:41:04.830Z,78.03
2022-10-15T07:43:33.346Z,72.97
2022-10-15T07:46:01.291Z,77.45
2022-10-15T07:48:28.378Z,75.25
2022-10-15T07:51:00.113Z,69.72
2022-10-15T07:53:31.347Z,70.15
2022-10-15T07:56:02.188Z,66.68
2022-10-15T07:58:34.781Z,67.25
2022-10-15T08:01:02.967Z,66.43
2022-10-15T08:03:30.982Z,66.43
2022-10-15T08:06:03.107Z,60.33
2022-10-15T08:08:30.355Z,60.08
2022-10-15T08:10:57.750Z,61.97
2022-10-15T08:13:28.246Z,57.28
2022-10-15T08:15:57.801Z,60.90
2022-10-15T08:18:27.684Z,63.28
2022-10-15T08:20:54.728Z,62.40
2022-10-15T08:23:22.115Z,65.00
2022-10-15T08:25:49.040Z,63.60
2022-10-15T08:28:18.469Z,64.40
2022-10-15T08:30:47.955Z,65.22
2022-10-15T08:33:17.586Z,59.17
2022-10-15T08:35:44.750Z,63.28
2022-10-15T08:38:14.832Z,67.15
2022-10-15T08:40:54.818Z,65.72
2022-10-15T08:43:34.791Z,66.47
2022-10-15T08:46:11.599Z,62.50
2022-10-15T08:48:44.601Z,67.10
2022-10-15T08:51:17.127Z,56.88
2022-10-15T08:53:49.702Z,62.10
2022-10-15T08:56:28.723Z,54.40
2022-10-15T08:59:04.767Z,61.50
2022-10-15T09:01:40.021Z,59.28
2022-10-15T09:07:13.860Z,56.67
2022-10-15T09:10:14.832Z,61.55
2022-10-15T09:12:54.267Z,56.42
2022-10-15T09:15:26.913Z,59.53
2022-10-15T09:17:55.951Z,59.63
2022-10-15T09:20:37.125Z,55.75
2022-10-15T09:23:14.045Z,56.35
2022-10-15T09:25:44.889Z,54.72
2022-10-15T09:28:18.058Z,56.17
2022-10-15T09:30:52.718Z,51.08
2022-10-15T09:33:28.931Z,55.05
2022-10-15T09:36:26.167Z,57.10
2022-10-15T09:39:09.139Z,52.38
2022-10-15T09:41:56.418Z,53.97
2022-10-15T09:44:28.570Z,49.22
2022-10-15T09:46:55.744Z,52.63
2022-10-15T09:49:31.351Z,49.38
2022-10-15T09:52:16.231Z,46.35
2022-10-15T09:54:58.842Z,49.08
2022-10-15T09:57:26.949Z,51.92
2022-10-15T10:00:03.228Z,52.55
2022-10-15T10:02:39.541Z,45.67
2022-10-15T10:05:19.250Z,43.78
2022-10-15T10:07:46.651Z,47.28
2022-10-15T10:10:24.965Z,47.97
2022-10-15T10:12:53.080Z,48.47
2022-10-15T10:15:41.798Z,46.22
2022-10-15T10:18:19.696Z,48.88
2022-10-15T10:20:59.365Z,47.70
2022-10-15T10:23:36.855Z,51.90
2022-10-15T10:26:11.242Z,47.20
2022-10-15T10:28:57.086Z,39.83
2022-10-15T10:31:42.725Z,40.60
2022-10-15T10:34:17.641Z,41.33
2022-10-15T10:36:51.341Z,41.90
2022-10-15T10:39:21.164Z,40.33
2022-10-15T10:41:52.712Z,43.10
2022-10-15T10:44:22.960Z,39.80
2022-10-15T10:47:08.331Z,41.67
2022-10-15T10:49:41.712Z,38.90
2022-10-15T10:52:31.282Z,40.30
2022-10-15T10:55:05.594Z,41.08
2022-10-15T10:57:32.474Z,41.25
2022-10-15T11:00:04.748Z,38.58
2022-10-15T11:02:33.921Z,36.38
2022-10-15T11:05:01.115Z,39.28
2022-10-15T11:07:50.138Z,41.10
2022-10-15T11:10:21.481Z,40.42
2022-10-15T11:12:58.740Z,37.97
2022-10-15T11:15:55.293Z,40.33
2022-10-15T11:18:34.425Z,44.60
2022-10-15T11:21:25.556Z,40.28
2022-10-15T11:24:33.463Z,42.00
2022-10-15T11:27:39.761Z,37.25
2022-10-15T11:30:25.648Z,40.03
2022-10-15T11:33:07.494Z,41.95
2022-10-15T11:35:59.789Z,42.30
2022-10-15T11:38:50.967Z,47.47
2022-10-15T11:41:47.413Z,49.42
2022-10-15T11:44:27.905Z,44.67
2022-10-15T11:47:13.016Z,49.10
2022-10-15T11:49:55.421Z,40.93
2022-10-15T11:52:47.608Z,47.25
2022-10-15T11:55:15.765Z,45.47
2022-10-15T11:57:47.520Z,53.75
2022-10-15T12:00:39.925Z,52.65
2022-10-15T12:03:18.399Z,55.50
2022-10-15T12:06:00.837Z,52.17
2022-10-15T12:08:34.956Z,53.33
2022-10-15T12:11:30.878Z,59.40
2022-10-15T12:14:28.346Z,56.72
2022-10-15T12:19:50.654Z,60.72
2022-10-15T12:22:37.980Z,57.72
2022-10-15T12:25:26.216Z,58.40
2022-10-15T12:28:14.072Z,51.88
2022-10-15T12:30:43.392Z,57.38
2022-10-15T12:33:32.841Z,54.60
2022-10-15T12:36:10.054Z,49.67
2022-10-15T12:38:40.232Z,57.97
2022-10-15T12:41:10.801Z,58.00
2022-10-15T12:43:44.774Z,55.75
2022-10-15T12:46:13.387Z,60.28
2022-10-15T12:48:43.788Z,55.55
2022-10-15T12:51:30.945Z,53.95
2022-10-15T12:54:00.410Z,54.17
2022-10-15T12:56:53.789Z,54.33
2022-10-15T12:59:53.974Z,55.38
2022-10-15T13:05:28.713Z,56.08
2022-10-15T13:08:00.821Z,58.42
2022-10-15T13:10:33.051Z,59.83
2022-10-15T13:13:05.117Z,60.83
2022-10-15T13:15:34.360Z,63.58
2022-10-15T13:18:08.536Z,66.68
2022-10-15T13:20:44.434Z,63.65
2022-10-15T13:26:25.721Z,62.97
2022-10-15T13:28:56.869Z,67.47
2022-10-15T13:31:31.648Z,77.65
2022-10-15T13:34:20.091Z,77.47
2022-10-15T13:36:49.945Z,71.60
2022-10-15T13:39:43.387Z,75.47
2022-10-15T13:42:23.219Z,76.93
2022-10-15T13:45:03.256Z,72.10
2022-10-15T13:47:32.459Z,72.95
2022-10-15T13:50:28.778Z,75.88
2022-10-15T13:53:22.748Z,72.43
2022-10-15T13:55:52.703Z,76.53
2022-10-15T13:58:26.443Z,73.10
2022-10-15T14:01:14.031Z,68.53
2022-10-15T14:04:02.741Z,68.22
2022-10-15T14:06:34.344Z,73.13
2022-10-15T14:09:15.061Z,67.50
2022-10-15T14:11:42.050Z,74.53
2022-10-15T14:14:27.931Z,80.85
2022-10-15T14:16:56.538Z,100.75
2022-10-15T14:19:30.205Z,106.35
2022-10-15T14:21:58.881Z,82.13
2022-10-15T14:24:39.567Z,79.30
2022-10-15T14:27:20.208Z,74.28
2022-10-15T14:29:50.565Z,80.78
2022-10-15T14:32:27.518Z,76.63
2022-10-15T14:34:59.991Z,75.40
2022-10-15T14:37:47.206Z,78.68
2022-10-15T14:40:18.974Z,79.43
2022-10-15T14:43:03.738Z,83.05
2022-10-15T14:45:42.090Z,79.57
2022-10-15T14:48:20.659Z,78.63
2022-10-15T14:50:47.912Z,82.80
2022-10-15T14:53:21.953Z,79.93
2022-10-15T14:55:58.737Z,81.90
2022-10-15T14:58:28.246Z,76.72
2022-10-15T15:01:02.017Z,79.20
2022-10-15T15:03:40.569Z,73.70
2022-10-15T15:06:09.134Z,84.63
2022-10-15T15:08:36.383Z,80.45
2022-10-15T15:11:06.923Z,78.28
2022-10-15T15:13:39.946Z,75.40
2022-10-15T15:16:11.660Z,76.40
2022-10-15T15:18:38.950Z,75.72
2022-10-15T15:21:10.683Z,83.93
2022-10-15T15:23:37.748Z,80.38
2022-10-15T15:26:07.309Z,79.07
2022-10-15T15:28:34.343Z,79.28
2022-10-15T15:31:21.855Z,79.03
2022-10-15T15:33:49.178Z,78.40
2022-10-15T15:36:20.958Z,79.72
2022-10-15T15:38:50.766Z,71.72
2022-10-15T15:41:23.951Z,75.13
2022-10-15T15:43:51.719Z,73.40
2022-10-15T15:46:19.017Z,73.20
2022-10-15T15:48:46.032Z,74.20
2022-10-15T15:51:19.329Z,73.30
2022-10-15T15:53:46.618Z,78.70
2022-10-15T15:56:14.046Z,77.63
2022-10-15T15:58:41.125Z,76.20
2022-10-15T16:01:08.573Z,78.28
2022-10-15T16:03:38.426Z,76.82
2022-10-15T16:06:07.421Z,75.60
2022-10-15T16:08:35.560Z,76.00
2022-10-15T16:11:04.458Z,81.80
2022-10-15T16:13:32.014Z,72.93
2022-10-15T16:16:01.629Z,76.22
2022-10-15T16:18:28.788Z,120.45
2022-10-15T16:20:55.978Z,80.82
2022-10-15T16:23:22.926Z,78.30
2022-10-15T16:25:50.112Z,73.20
2022-10-15T16:28:17.333Z,74.50
2022-10-15T16:30:44.600Z,84.20
2022-10-15T16:33:11.660Z,85.72
2022-10-15T16:35:38.987Z,85.80
2022-10-15T16:38:06.347Z,86.57
2022-10-15T16:40:33.914Z,79.82
2022-10-15T16:43:01.124Z,86.40
2022-10-15T16:45:28.318Z,88.90
2022-10-15T16:47:55.543Z,78.25
2022-10-15T16:50:22.968Z,85.47
2022-10-15T16:52:49.921Z,75.40
2022-10-15T16:55:19.354Z,86.38
2022-10-15T16:57:46.353Z,81.82
2022-10-15T17:00:14.028Z,83.32
2022-10-15T17:02:41.168Z,80.80
2022-10-15T17:05:11.499Z,83.22
2022-10-15T17:07:38.499Z,91.78
2022-10-15T17:10:12.333Z,84.22
2022-10-15T17:12:43.146Z,86.32
2022-10-15T17:15:11.527Z,85.25
2022-10-15T17:17:39.891Z,80.00
2022-10-15T17:20:09.243Z,87.35
2022-10-15T17:22:37.777Z,85.97
2022-10-15T17:25:05.474Z,88.20
2022-10-15T17:27:34.128Z,84.85
2022-10-15T17:30:04.927Z,84.68
2022-10-15T17:32:32.421Z,87.97
2022-10-15T17:35:03.741Z,86.90
2022-10-15T17:37:32.380Z,94.53
2022-10-15T17:40:00.388Z,88.60
2022-10-15T17:42:30.289Z,89.40
2022-10-15T17:44:58.697Z,88.63
2022-10-15T17:47:26.611Z,90.90
2022-10-15T17:49:55.817Z,90.05
2022-10-15T17:52:23.587Z,87.53
2022-10-15T17:54:54.155Z,83.03
2022-10-15T17:57:21.789Z,79.82
2022-10-15T17:59:51.169Z,79.75
2022-10-15T18:02:21.075Z,79.97
2022-10-15T18:04:48.483Z,79.70
2022-10-15T18:07:20.056Z,84.72
2022-10-15T18:09:51.283Z,82.55
2022-10-15T18:12:19.173Z,95.57
2022-10-15T18:14:46.939Z,82.00
2022-10-15T18:17:24.574Z,72.72
2022-10-15T18:19:52.859Z,78.57
2022-10-15T18:22:21.076Z,79.75
2022-10-15T18:24:52.225Z,80.97
2022-10-15T18:27:21.528Z,75.75
2022-10-15T18:29:52.190Z,76.22
2022-10-15T18:32:20.555Z,78.45
2022-10-15T18:34:48.704Z,82.07
2022-10-15T18:37:17.227Z,77.90
2022-10-15T18:39:45.645Z,77.85
2022-10-15T18:42:16.767Z,72.75
2022-10-15T18:44:44.277Z,81.93
2022-10-15T18:47:15.854Z,74.57
2022-10-15T18:49:45.501Z,73.38
2022-10-15T18:52:28.272Z,78.15
2022-10-15T18:55:06.166Z,73.88
2022-10-15T18:57:34.995Z,71.18
2022-10-15T19:00:03.812Z,68.78
2022-10-15T19:02:31.416Z,72.40
2022-10-15T19:04:59.457Z,78.85
2022-10-15T19:07:30.005Z,65.45
2022-10-15T19:09:58.851Z,66.32
2022-10-15T19:12:27.917Z,62.45
2022-10-15T19:14:55.561Z,67.70
2022-10-15T19:17:24.771Z,66.05
2022-10-15T19:19:52.194Z,58.20
2022-10-15T19:22:19.290Z,63.15
2022-10-15T19:24:46.586Z,66.20
2022-10-15T19:27:13.990Z,63.40
2022-10-15T19:29:41.784Z,62.50
2022-10-15T19:32:08.885Z,68.15
2022-10-15T19:34:36.556Z,63.10
2022-10-15T19:37:03.992Z,66.50
2022-10-15T19:39:37.312Z,63.92
2022-10-15T19:42:05.603Z,60.88
2022-10-15T19:44:34.941Z,62.10
2022-10-15T19:47:02.882Z,64.45
2022-10-15T19:49:34.072Z,60.03
2022-10-15T19:52:01.815Z,61.42
2022-10-15T19:54:30.891Z,59.65
2022-10-15T19:56:58.562Z,66.78
2022-10-15T19:59:26.654Z,64.20
2022-10-15T20:01:56.636Z,67.22
2022-10-15T20:04:24.329Z,63.85
2022-10-15T20:06:54.988Z,70.53
2022-10-15T20:09:22.522Z,62.92
2022-10-15T20:11:50.129Z,66.95
2022-10-15T20:14:18.084Z,75.55
2022-10-15T20:16:45.162Z,65.97
2022-10-15T20:19:12.708Z,64.40
2022-10-15T20:21:42.142Z,68.45
2022-10-15T20:24:09.457Z,74.63
2022-10-15T20:26:36.571Z,73.47
2022-10-15T20:29:03.815Z,81.35
2022-10-15T20:31:33.174Z,77.35
2022-10-15T20:34:01.874Z,82.05
2022-10-15T20:36:29.017Z,74.85
2022-10-15T20:38:58.235Z,78.38
2022-10-15T20:41:27.423Z,75.13
2022-10-15T20:43:56.170Z,70.93
2022-10-15T20:46:31.684Z,72.00
2022-10-15T20:51:33.040Z,81.70
2022-10-15T20:54:00.446Z,85.57
2022-10-15T20:56:28.046Z,77.65
2022-10-15T20:58:55.176Z,84.80
2022-10-15T21:01:22.295Z,86.95
2022-10-15T21:03:49.455Z,91.90
2022-10-15T21:06:16.503Z,83.38
2022-10-15T21:08:43.742Z,78.47
2022-10-15T21:11:13.289Z,78.50
2022-10-15T21:13:40.543Z,77.50
2022-10-15T21:16:08.069Z,86.55
2022-10-15T21:18:36.060Z,77.38
2022-10-15T21:21:08.201Z,77.57
2022-10-15T21:23:35.984Z,86.60
2022-10-15T21:26:13.566Z,79.93
2022-10-15T21:28:41.124Z,94.18
2022-10-15T21:31:13.061Z,78.90
2022-10-15T21:33:40.807Z,100.32
2022-10-15T21:36:13.363Z,91.93
2022-10-15T21:38:41.856Z,96.65
2022-10-15T21:41:09.034Z,110.30
2022-10-15T21:43:36.338Z,108.90
2022-10-15T21:46:11.291Z,108.85
2022-10-15T21:48:38.998Z,80.28
2022-10-15T21:51:10.340Z,106.43
2022-10-15T21:53:37.832Z,109.82
2022-10-15T21:56:05.744Z,133.30
2022-10-15T21:58:32.811Z,134.90
2022-10-15T22:01:09.137Z,118.47
2022-10-15T22:03:36.785Z,114.60
2022-10-15T22:06:07.701Z,116.78
2022-10-15T22:08:35.550Z,108.97
2022-10-15T22:11:14.355Z,96.90
2022-10-15T22:13:44.205Z,105.65
2022-10-15T22:16:12.203Z,99.43
2022-10-15T22:18:43.672Z,107.78
2022-10-15T22:21:16.668Z,91.30
2022-10-15T22:23:56.128Z,99.05
2022-10-15T22:26:26.910Z,103.35
2022-10-15T22:28:56.474Z,103.22
2022-10-15T22:31:24.376Z,99.07
2022-10-15T22:33:51.727Z,96.65
2022-10-15T22:36:21.332Z,103.57
2022-10-15T22:38:52.252Z,179.48
2022-10-15T22:41:19.577Z,93.03
2022-10-15T22:43:46.956Z,85.90
2022-10-15T22:46:14.207Z,102.38
2022-10-15T22:48:42.602Z,92.05
2022-10-15T22:51:14.930Z,117.03
2022-10-15T22:53:42.705Z,100.63
2022-10-15T22:56:16.098Z,116.90
2022-10-15T22:58:43.783Z,108.15
2022-10-15T23:01:10.864Z,186.65
2022-10-15T23:03:39.666Z,140.43
2022-10-15T23:06:06.804Z,133.15
2022-10-15T23:08:35.137Z,134.25
2022-10-15T23:11:13.795Z,149.90
2022-10-15T23:13:42.429Z,113.35
2022-10-15T23:16:15.927Z,165.32
2022-10-15T23:18:45.461Z,127.63
2022-10-15T23:21:17.810Z,166.57
2022-10-15T23:23:45.753Z,296.73
2022-10-15T23:26:15.062Z,152.25
2022-10-15T23:28:43.569Z,217.45
2022-10-15T23:31:18.461Z,142.73
2022-10-15T23:33:48.410Z,225.00
2022-10-15T23:36:18.302Z,228.15
2022-10-15T23:38:49.043Z,211.52
2022-10-15T23:41:16.012Z,121.30
2022-10-15T23:43:46.544Z,159.30
2022-10-15T23:46:14.652Z,191.05
2022-10-15T23:48:41.804Z,112.97
2022-10-15T23:51:12.782Z,121.55
2022-10-15T23:53:40.076Z,134.75
2022-10-15T23:56:07.117Z,106.88
2022-10-15T23:58:34.871Z,98.15
